• Join FlightAware (Why Join?)
  • Login
  • US Flag 
10:42PM EST


 

Airport Tracker/Info


-or-


 

Live Flight TrackerFlight Track Log ✈ AAY877 ✈ 15-Apr-2014 ✈ KRFD - KPIE

Flight Track Log - Related Links

Times and Time Zones

All times are in EDT time to prevent confusion due to time zone crossing. See the AAY877 flight status page for this flight to view local times or setup timezone preferences in your user account.

Time Position Orientation Groundspeed Altitude Reporting Facility
EDT Latitude Longitude Course Direction KTS MPH feet Rate Location/Type
08:26PM 42.1272 -89.1222 166° South 217 250 4,100  Level Chicago Center
08:27PM 42.0572 -89.0964 165° South 252 290 7,400 3,000 Climbing Chicago Center
08:28PM 41.9775 -89.0633 163° South 287 330 10,300 1,980 Climbing Chicago Center
08:29PM 41.8883 -89.0208 160° South 329 379 11,500 1,680 Climbing Chicago Center
08:30PM 41.7889 -88.9431 150° Southeast 400 460 13,800 2,220 Climbing Chicago Center
08:31PM 41.6595 -88.8063 166° South  Level Estimated
08:31PM 41.6883 -88.8622 149° Southeast 418 481 16,100  Level Chicago Center
08:32PM 41.5589 -88.7619 150° Southeast 450 518 18,300 1,920 Climbing Chicago Center
08:33PM 41.4481 -88.6800 151° Southeast 451 519 20,100 1,680 Climbing Chicago Center
08:35PM 41.3367 -88.5947 150° Southeast 462 532 21,800 1,560 Climbing Chicago Center
08:36PM 41.2203 -88.5075 151° Southeast 478 550 23,400 1,380 Climbing Chicago Center
08:37PM 41.1019 -88.4192 151° Southeast 487 560 24,700 1,620 Climbing Chicago Center
08:38PM 40.9567 -88.3114 151° Southeast 498 573 26,800 1,620 Climbing Chicago Center
08:39PM 40.8386 -88.2211 150° Southeast 498 573 28,100 1,200 Climbing Chicago Center
08:40PM 40.7186 -88.1308 150° Southeast 498 573 29,400 1,200 Climbing Chicago Center
08:41PM 40.5981 -88.0447 152° Southeast 497 572 30,700 960 Climbing Chicago Center
08:42PM 40.4772 -87.9586 152° Southeast 496 571 31,500 900 Climbing Chicago Center
08:43PM 40.3347 -87.8536 151° Southeast 494 568 32,600 720 Climbing Chicago Center
08:44PM 40.2167 -87.7650 150° Southeast 493 567 33,000 180 Climbing Chicago Center
08:45PM 40.0919 -87.6764 151° Southeast 490 564 33,000  Level Chicago Center
08:46PM 39.9725 -87.5903 151° Southeast 490 564 33,000  Level Chicago Center
08:47PM 39.8978 -87.5386 152° Southeast 491 565 33,000  Level Indianapolis Center
08:48PM 39.7786 -87.4547 152° Southeast 491 565 33,000  Level Indianapolis Center
08:49PM 39.6353 -87.3522 151° Southeast 491 565 33,000  Level Indianapolis Center
08:50PM 39.5161 -87.2681 151° Southeast 491 565 33,000  Level Indianapolis Center
08:51PM 39.3906 -87.2114 161° South 483 556 33,000  Level Indianapolis Center
08:52PM 39.2617 -87.1733 167° South 482 555 33,000  Level Indianapolis Center
08:53PM 39.1131 -87.1333 168° South 481 554 33,000  Level Indianapolis Center
08:54PM 38.9844 -87.0903 165° South 479 551 33,000  Level Indianapolis Center
08:55PM 38.8558 -87.0456 165° South 478 550 33,000  Level Indianapolis Center
08:56PM 38.7278 -87.0006 165° South 477 549 33,000  Level Indianapolis Center
08:57PM 38.5989 -86.9603 166° South 477 549 33,000  Level Indianapolis Center
08:58PM 38.4697 -86.9219 167° South 475 547 33,000  Level Indianapolis Center
08:59PM 38.3394 -86.8825 167° South 470 541 33,000  Level Indianapolis Center
09:00PM 38.2097 -86.8400 166° South 470 541 33,000  Level Indianapolis Center
09:01PM 38.0825 -86.7986 166° South 470 541 33,000  Level Indianapolis Center
09:02PM 37.9567 -86.7597 166° South 465 535 33,000  Level Indianapolis Center
09:03PM 37.8306 -86.7206 166° South 464 534 33,000  Level Indianapolis Center
09:04PM 37.7050 -86.6839 167° South 464 534 33,000  Level Indianapolis Center
09:05PM 37.5800 -86.6444 166° South 463 533 33,000  Level Indianapolis Center
09:06PM 37.4578 -86.6042 165° South 463 533 33,000  Level Indianapolis Center
09:07PM 37.3122 -86.5614 167° South 458 527 33,000  Level Indianapolis Center
09:08PM 37.1864 -86.5214 166° South 458 527 33,000  Level Indianapolis Center
09:09PM 37.0608 -86.4836 166° South 458 527 33,000  Level Indianapolis Center
09:10PM 36.9353 -86.4458 166° South 458 527 33,000  Level Indianapolis Center
09:11PM 36.8100 -86.4050 165° South 458 527 33,000  Level Indianapolis Center
09:12PM 36.6856 -86.3617 164° South 458 527 33,000  Level Indianapolis Center
09:13PM 36.5608 -86.3200 165° South 458 527 33,000  Level Indianapolis Center
09:14PM 36.4158 -86.2719 165° South 458 527 33,000  Level Memphis Center
09:15PM 36.2900 -86.2311 165° South 458 527 33,000  Level Memphis Center
09:17PM 36.1653 -86.1911 165° South 458 527 33,000  Level Memphis Center
09:18PM 36.0408 -86.1503 165° South 458 527 33,000  Level Memphis Center
09:19PM 35.8972 -86.1036 165° South 457 526 33,000  Level Memphis Center
09:20PM 35.7736 -86.0636 165° South 456 525 33,000  Level Memphis Center
09:21PM 35.6497 -86.0233 165° South 456 525 33,000  Level Memphis Center
09:22PM 35.5256 -85.9836 165° South 452 520 33,000  Level Memphis Center
09:23PM 35.4039 -85.9439 165° South 452 520 33,000  Level Memphis Center
09:24PM 35.2836 -85.9053 165° South 452 520 33,000  Level Memphis Center
09:25PM 35.1622 -85.8656 165° South 452 520 33,000  Level Memphis Center
09:26PM 35.0397 -85.8264 165° South 452 520 33,000  Level Memphis Center
09:27PM 34.9169 -85.7881 166° South 453 521 33,000  Level Memphis Center
09:27PM 34.8403 -85.7647 166° South 451 519 33,000  Level Atlanta Center
09:28PM 34.7178 -85.7269 166° South 451 519 33,000  Level Atlanta Center
09:29PM 34.5972 -85.6867 165° South 451 519 33,000  Level Atlanta Center
09:30PM 34.4744 -85.6489 166° South 451 519 33,000  Level Atlanta Center
09:31PM 34.3603 -85.6089 164° South 451 519 33,000  Level Atlanta Center
09:32PM 34.2417 -85.5767 167° South 445 512 33,000  Level Atlanta Center
09:33PM 34.1253 -85.5394 165° South 445 512 33,000  Level Atlanta Center
09:34PM 34.0047 -85.5047 167° South 440 506 33,000  Level Atlanta Center
09:35PM 33.8861 -85.4675 165° South 440 506 33,000  Level Atlanta Center
09:36PM 33.7656 -85.4281 165° South 445 512 33,000  Level Atlanta Center
09:37PM 33.6511 -85.3939 166° South 450 518 33,000  Level Atlanta Center
09:38PM 33.5325 -85.3572 166° South 439 505 33,000  Level Atlanta Center
09:39PM 33.4161 -85.3231 166° South 431 496 33,000  Level Atlanta Center
09:40PM 33.2975 -85.2864 166° South 431 496 33,000  Level Atlanta Center
09:41PM 33.1789 -85.2525 167° South 431 496 33,000  Level Atlanta Center
09:42PM 33.0747 -85.2189 165° South 431 496 33,000  Level Atlanta Center
09:43PM 32.9603 -85.1753 162° South 431 496 33,000  Level Atlanta Center
09:44PM 32.8439 -85.1417 166° South 431 496 33,000  Level Atlanta Center
09:45PM 32.7253 -85.0906 160° South 439 505 33,000  Level Atlanta Center
09:46PM 32.6128 -85.0522 164° South 428 493 33,000  Level Atlanta Center
09:48PM 32.3894 -84.9814 165° South 417 480 33,000  Level Jacksonville Center
09:49PM 32.2753 -84.9419 164° South 422 486 33,000  Level Jacksonville Center
09:50PM 32.1611 -84.9050 165° South 422 486 33,000  Level Jacksonville Center
09:51PM 32.0508 -84.8658 163° South 422 486 33,000  Level Jacksonville Center
09:52PM 31.9306 -84.8289 165° South 407 468 33,000  Level Jacksonville Center
09:53PM 31.8225 -84.7925 164° South 407 468 33,000  Level Jacksonville Center
09:54PM 31.7164 -84.7561 164° South 407 468 33,000  Level Jacksonville Center
09:55PM 31.6106 -84.7222 165° South 402 463 33,000  Level Jacksonville Center
09:56PM 31.5025 -84.6836 163° South 402 463 33,000  Level Jacksonville Center
09:57PM 31.3922 -84.6472 164° South 397 457 33,000  Level Jacksonville Center
09:58PM 31.2842 -84.6136 165° South 397 457 33,000  Level Jacksonville Center
09:59PM 31.1761 -84.5803 165° South 397 457 33,000  Level Jacksonville Center
10:00PM 31.0681 -84.5322 159° South 397 457 33,000  Level Jacksonville Center
10:01PM 30.9667 -84.4747 154° Southeast 407 468 33,000  Level Jacksonville Center
10:02PM 30.8631 -84.4147 154° Southeast 414 476 33,000  Level Jacksonville Center
10:03PM 30.7550 -84.3550 155° Southeast 421 484 33,000  Level Jacksonville Center
10:04PM 30.6492 -84.2981 155° Southeast 421 484 33,000  Level Jacksonville Center
10:05PM 30.5433 -84.2408 155° Southeast 421 484 33,000  Level Jacksonville Center
10:06PM 30.4394 -84.1817 154° Southeast 421 484 33,000  Level Jacksonville Center
10:07PM 30.3358 -84.1225 154° Southeast 421 484 33,000  Level Jacksonville Center
10:08PM 30.2297 -84.0633 154° Southeast 421 484 33,000  Level Jacksonville Center
10:09PM 30.1217 -84.0044 155° Southeast 421 484 33,000  Level Jacksonville Center
10:10PM 30.0158 -83.9481 155° Southeast 421 484 33,000  Level Jacksonville Center
10:11PM 29.9203 -83.8942 154° Southeast 421 484 33,000  Level Jacksonville Center
10:12PM 29.8142 -83.8358 154° Southeast 421 484 33,000  Level Jacksonville Center
10:13PM 29.7081 -83.7772 154° Southeast 421 484 33,000  Level Jacksonville Center
10:14PM 29.6000 -83.7214 156° South 421 484 33,000 -120 Level Jacksonville Center
10:15PM 29.4917 -83.6583 153° Southeast 421 484 32,800 -1,200 Descending Jacksonville Center
10:16PM 29.3856 -83.6028 155° Southeast 421 484 30,600 -2,280 Descending Jacksonville Center
10:17PM 29.2794 -83.5450 155° Southeast 421 484 28,300 -2,100 Descending Jacksonville Center
10:18PM 29.1753 -83.4825 152° Southeast 421 484 26,400 -1,860 Descending Jacksonville Center
10:19PM 29.0797 -83.4225 151° Southeast 411 473 24,600 -1,800 Descending Jacksonville Center
10:20PM 28.9817 -83.3625 152° Southeast 399 459 22,900 -1,740 Descending Jacksonville Center
10:21PM 28.8839 -83.3006 151° Southeast 399 459 21,200 -1,800 Descending Jacksonville Center
10:22PM 28.7839 -83.2336 150° Southeast 404 465 19,400 -1,800 Descending Jacksonville Center
10:24PM 28.5833 -83.1000 150° Southeast 414 476 15,900 -1,860 Descending Tampa TRACON
10:25PM 28.4667 -83.0333 153° Southeast 393 452 13,900 -1,620 Descending Tampa TRACON
10:26PM 28.3833 -82.9833 152° Southeast 354 407 12,600 -1,260 Descending Tampa TRACON
10:27PM 28.3000 -82.9500 161° South 322 371 11,600 -1,200 Descending Tampa TRACON
10:28PM 28.2167 -82.9167 161° South 312 359 10,400 -1,260 Descending Tampa TRACON
10:29PM 28.1500 -82.8833 156° South 295 339 9,300 -1,380 Descending Tampa TRACON
10:30PM 28.0833 -82.8500 156° South 283 326 7,800 -1,500 Descending Tampa TRACON
10:31PM 28.0000 -82.8167 161° South 285 328 6,300 -1,200 Descending Tampa TRACON
10:32PM 27.9333 -82.7833 156° South 253 291 5,300 -1,200 Descending Tampa TRACON
10:33PM 27.8667 -82.7500 156° South 208 239 3,700 -1,620 Descending Tampa TRACON
10:34PM 27.8167 -82.7333 164° South 215 247 2,000 -1,140 Descending Tampa TRACON
10:35PM 27.8167 -82.6833 90° East 162 186 1,500 -600 Descending Tampa TRACON
10:36PM 27.8500 -82.6833 360° North 132 152 1,000 -720 Descending Tampa TRACON
10:37PM 27.8833 -82.6833 360° North 122 140 400 -720 Descending Tampa TRACON